Accueil
METAR-TAF:

METAR-TAF

Aéroports :

Luni

Sarzana, Italie

latitude: 44-05N, longitude: 009-59E, altitude: 9 m

Observation

Le bulletin a été fait il y a 13 heures et 7 minutes, à 09:55 UTC
Vent 4 kt de sud, variant entre est/sud-est et sud-ouest
Température 29°C
Humidité 55%
Pression 1014 hPa
Visibilité 10 km ou plus
Quelques nuages à une hauteur de 2000 ft

METAR: LIQW 170955Z 17004KT 110V220 9999 FEW020 29/19 Q1014 RMK FEW VIS MIN 9999 WIND THR18 18006KT BLU

Heure: 01:02 (23:02 UTC)


TAF: absent

Observations et prévisions météorologiques de plus de 4000 aéroports (messages METAR et TAF).

Les stations disponibles sont représentées par des disques jaunes et rouges sur la carte.

Passer la souris dessus pour voir le nom de la station.

Cliquer dessus pour voir les observations et prévisions météorologiques.

Pour changer de carte: cliquez sur les boutons verts avec une croix noire pour zoomer, sur le bouton vert avec un tiret pour effectuer un zoom arrière, ou sur les flèches vertes pour les cartes adjacentes.


METAR-TAF: